createdAt,value
2023-02-11T00:01:21.812Z,99664.06
2023-02-11T00:03:49.899Z,99664.91
2023-02-11T00:06:18.189Z,99653.91
2023-02-11T00:08:46.434Z,99652.22
2023-02-11T00:11:15.826Z,99642.06
2023-02-11T00:13:45.869Z,99645.47
2023-02-11T00:16:16.802Z,99636.97
2023-02-11T00:18:45.151Z,99645.44
2023-02-11T00:21:14.833Z,99644.63
2023-02-11T00:23:43.485Z,99651.41
2023-02-11T00:26:13.673Z,99646.31
2023-02-11T00:28:45.287Z,99655.63
2023-02-11T00:31:14.053Z,99658.16
2023-02-11T00:33:42.649Z,99664.09
2023-02-11T00:36:14.156Z,99662.38
2023-02-11T00:38:44.172Z,99667.44
2023-02-11T00:41:13.018Z,99667.44
2023-02-11T00:43:41.440Z,99676.78
2023-02-11T00:46:10.728Z,99681.00
2023-02-11T00:48:38.834Z,99692.00
2023-02-11T00:51:07.432Z,99711.50
2023-02-11T00:53:35.883Z,99715.72
2023-02-11T00:56:04.260Z,99724.16
2023-02-11T00:58:32.374Z,99730.97
2023-02-11T01:01:00.596Z,99737.72
2023-02-11T01:03:30.103Z,99759.72
2023-02-11T01:05:58.018Z,99769.06
2023-02-11T01:08:25.945Z,99771.59
2023-02-11T01:10:58.292Z,99780.91
2023-02-11T01:13:27.952Z,99799.53
2023-02-11T01:15:58.710Z,99794.47
2023-02-11T01:18:27.102Z,99812.25
2023-02-11T01:20:56.435Z,99823.28
2023-02-11T01:23:24.614Z,99822.41
2023-02-11T01:25:53.117Z,99822.41
2023-02-11T01:28:22.977Z,99831.75
2023-02-11T01:30:51.663Z,99832.59
2023-02-11T01:33:19.409Z,99850.38
2023-02-11T01:35:47.870Z,99844.44
2023-02-11T01:38:19.331Z,99846.97
2023-02-11T01:40:51.916Z,99852.06
2023-02-11T01:43:19.794Z,99863.94
2023-02-11T01:45:58.414Z,99869.03
2023-02-11T01:48:30.304Z,99863.94
2023-02-11T01:51:04.345Z,99871.56
2023-02-11T01:53:52.342Z,99876.66
2023-02-11T01:56:39.253Z,99884.28
2023-02-11T01:59:11.324Z,99880.03
2023-02-11T02:01:42.473Z,99882.56
2023-02-11T02:04:11.914Z,99890.19
2023-02-11T02:06:49.055Z,99888.50
2023-02-11T02:09:23.154Z,99892.72
2023-02-11T02:11:51.953Z,99889.38
2023-02-11T02:14:20.149Z,99888.50
2023-02-11T02:16:48.528Z,99899.53
2023-02-11T02:19:51.392Z,99890.19
2023-02-11T02:22:55.195Z,99892.72
2023-02-11T02:26:13.839Z,99892.72
2023-02-11T02:29:12.136Z,99892.72
2023-02-11T02:32:13.471Z,99895.28
2023-02-11T02:34:51.342Z,99901.22
2023-02-11T02:37:25.411Z,99902.06
2023-02-11T02:39:53.412Z,99900.38
2023-02-11T02:42:22.288Z,99909.72
2023-02-11T02:44:50.749Z,99897.84
2023-02-11T02:47:18.541Z,99898.69
2023-02-11T02:49:47.727Z,99889.34
2023-02-11T02:52:27.648Z,99882.59
2023-02-11T02:55:09.998Z,99887.66
2023-02-11T02:57:53.827Z,99879.19
2023-02-11T03:00:30.918Z,99877.50
2023-02-11T03:03:11.032Z,99875.81
2023-02-11T03:05:50.138Z,99873.25
2023-02-11T03:08:25.598Z,99880.06
2023-02-11T03:10:56.249Z,99871.56
2023-02-11T03:13:32.000Z,99880.91
2023-02-11T03:16:03.771Z,99872.41
2023-02-11T03:18:34.374Z,99864.78
2023-02-11T03:21:06.252Z,99871.56
2023-02-11T03:23:38.700Z,99858.84
2023-02-11T03:26:12.612Z,99858.88
2023-02-11T03:28:45.564Z,99854.63
2023-02-11T03:31:28.126Z,99847.03
2023-02-11T03:34:05.232Z,99844.47
2023-02-11T03:36:41.005Z,99846.16
2023-02-11T03:39:12.613Z,99843.63
2023-02-11T03:41:43.193Z,99836.00
2023-02-11T03:44:14.914Z,99841.94
2023-02-11T03:46:49.014Z,99847.03
2023-02-11T03:49:20.095Z,99848.72
2023-02-11T03:51:52.723Z,99849.56
2023-02-11T03:54:22.094Z,99851.25
2023-02-11T03:56:54.417Z,99852.09
2023-02-11T03:59:22.989Z,99853.78
2023-02-11T04:01:51.007Z,99857.16
2023-02-11T04:04:19.047Z,99861.41
2023-02-11T04:06:46.859Z,99863.09
2023-02-11T04:09:16.141Z,99875.81
2023-02-11T04:11:43.894Z,99874.97
2023-02-11T04:14:11.678Z,99880.06
2023-02-11T04:16:39.610Z,99871.59
2023-02-11T04:19:07.931Z,99881.75
2023-02-11T04:21:35.657Z,99891.94
2023-02-11T04:24:03.429Z,99888.53
2023-02-11T04:26:32.540Z,99891.06
2023-02-11T04:29:00.240Z,99899.53
2023-02-11T04:31:28.141Z,99901.22
2023-02-11T04:33:56.234Z,99910.56
2023-02-11T04:36:24.037Z,99915.66
2023-02-11T04:38:51.811Z,99931.75
2023-02-11T04:41:19.677Z,99930.91
2023-02-11T04:43:48.808Z,99935.13
2023-02-11T04:46:16.530Z,99949.56
2023-02-11T04:48:44.338Z,99952.94
2023-02-11T04:51:12.216Z,99960.56
2023-02-11T04:53:39.981Z,99969.06
2023-02-11T04:56:08.174Z,99980.09
2023-02-11T04:58:36.060Z,99983.47
2023-02-11T05:01:08.770Z,99992.78
2023-02-11T05:03:37.234Z,99999.59
2023-02-11T05:06:06.008Z,100009.75
2023-02-11T05:08:34.380Z,100005.50
2023-02-11T05:11:02.974Z,100013.16
2023-02-11T05:13:31.021Z,100019.91
2023-02-11T05:15:58.774Z,100024.16
2023-02-11T05:18:27.956Z,100023.31
2023-02-11T05:20:55.747Z,100025.00
2023-02-11T05:23:23.655Z,100032.63
2023-02-11T05:25:51.679Z,100027.53
2023-02-11T05:28:20.010Z,100031.81
2023-02-11T05:30:47.853Z,100034.38
2023-02-11T05:33:15.782Z,100028.41
2023-02-11T05:35:45.028Z,100029.25
2023-02-11T05:38:13.042Z,100019.91
2023-02-11T05:40:40.884Z,100020.75
2023-02-11T05:43:08.779Z,100023.31
2023-02-11T05:45:37.202Z,100023.31
2023-02-11T05:48:05.213Z,100025.00
2023-02-11T05:50:33.034Z,100024.16
2023-02-11T05:53:02.121Z,100028.41
2023-02-11T05:55:29.958Z,100026.69
2023-02-11T05:57:57.754Z,100033.47
2023-02-11T06:00:26.066Z,100033.50
2023-02-11T06:02:53.930Z,100019.91
2023-02-11T06:05:21.698Z,100019.94
2023-02-11T06:07:49.525Z,100009.75
2023-02-11T06:10:18.810Z,100002.97
2023-02-11T06:12:46.582Z,100002.97
2023-02-11T06:15:14.339Z,99997.88
2023-02-11T06:17:42.174Z,99999.56
2023-02-11T06:20:11.176Z,100000.44
2023-02-11T06:22:39.037Z,100000.44
2023-02-11T06:25:07.695Z,99999.59
2023-02-11T06:27:36.899Z,99997.88
2023-02-11T06:30:05.078Z,99997.88
2023-02-11T06:32:43.821Z,100001.28
2023-02-11T06:35:13.455Z,100002.13
2023-02-11T06:37:41.252Z,100001.28
2023-02-11T06:40:09.674Z,100002.97
2023-02-11T06:42:39.901Z,99997.88
2023-02-11T06:45:09.374Z,100006.38
2023-02-11T06:47:37.944Z,100014.03
2023-02-11T06:50:06.431Z,100016.56
2023-02-11T06:52:34.672Z,100015.72
2023-02-11T06:55:02.607Z,100014.84
2023-02-11T06:57:31.439Z,100019.09
2023-02-11T07:00:00.600Z,100019.97
2023-02-11T07:02:28.636Z,100014.88
2023-02-11T07:04:56.528Z,100022.50
2023-02-11T07:07:24.308Z,100032.66
2023-02-11T07:09:52.151Z,100037.75
2023-02-11T07:12:19.909Z,100030.09
2023-02-11T07:14:47.645Z,100037.75
2023-02-11T07:17:16.934Z,100045.38
2023-02-11T07:19:44.732Z,100053.03
2023-02-11T07:22:12.644Z,100044.53
2023-02-11T07:24:40.475Z,100048.78
2023-02-11T07:27:08.757Z,100052.19
2023-02-11T07:29:36.502Z,100057.28
2023-02-11T07:32:04.440Z,100058.13
2023-02-11T07:34:33.866Z,100055.56
2023-02-11T07:37:01.633Z,100056.41
2023-02-11T07:39:29.502Z,100060.66
2023-02-11T07:41:58.400Z,100054.72
2023-02-11T07:44:26.701Z,100056.41
2023-02-11T07:46:54.582Z,100064.06
2023-02-11T07:49:22.592Z,100064.03
2023-02-11T07:51:52.056Z,100072.50
2023-02-11T07:54:20.019Z,100075.91
2023-02-11T07:56:48.009Z,100081.88
2023-02-11T07:59:15.900Z,100096.28
2023-02-11T08:01:43.847Z,100110.72
2023-02-11T08:04:11.798Z,100125.97
2023-02-11T08:06:43.106Z,100131.06
2023-02-11T08:09:16.254Z,100137.88
2023-02-11T08:11:44.750Z,100148.06
2023-02-11T08:14:13.417Z,100154.81
2023-02-11T08:16:41.876Z,100170.13
2023-02-11T08:19:14.177Z,100176.91
2023-02-11T08:21:42.608Z,100178.59
2023-02-11T08:24:12.849Z,100188.78
2023-02-11T08:26:41.004Z,100200.66
2023-02-11T08:29:11.660Z,100205.78
2023-02-11T08:31:41.456Z,100216.81
2023-02-11T08:34:11.347Z,100219.34
2023-02-11T08:36:40.622Z,100236.34
2023-02-11T08:39:19.099Z,100253.31
2023-02-11T08:41:49.768Z,100258.41
2023-02-11T08:44:18.348Z,100277.06
2023-02-11T08:46:46.283Z,100288.13
2023-02-11T08:49:15.437Z,100309.34
2023-02-11T08:51:43.862Z,100313.59
2023-02-11T08:54:12.091Z,100332.28
2023-02-11T08:56:40.559Z,100349.28
2023-02-11T08:59:12.088Z,100361.19
2023-02-11T09:01:39.987Z,100375.59
2023-02-11T09:04:07.742Z,100379.00
2023-02-11T09:06:35.547Z,100385.81
2023-02-11T09:09:03.308Z,100396.03
2023-02-11T09:11:33.775Z,100405.34
2023-02-11T09:14:02.269Z,100412.19
2023-02-11T09:16:32.881Z,100428.31
2023-02-11T09:19:02.316Z,100441.91
2023-02-11T09:21:30.705Z,100455.53
2023-02-11T09:23:58.516Z,100464.00
2023-02-11T09:26:28.738Z,100466.56
2023-02-11T09:28:57.057Z,100476.78
2023-02-11T09:31:27.119Z,100481.03
2023-02-11T09:34:00.509Z,100491.22
2023-02-11T09:36:30.777Z,100498.03
2023-02-11T09:39:06.030Z,100516.75
2023-02-11T09:41:59.292Z,100521.84
2023-02-11T09:44:29.501Z,100529.47
2023-02-11T09:47:00.616Z,100550.75
2023-02-11T09:49:36.333Z,100568.63
2023-02-11T09:52:09.361Z,100589.88
2023-02-11T09:54:40.171Z,100609.47
2023-02-11T09:57:22.870Z,100638.38
2023-02-11T09:59:56.595Z,100665.63
2023-02-11T10:02:35.311Z,100692.88
2023-02-11T10:05:31.381Z,100716.72
2023-02-11T10:08:09.873Z,100734.56
2023-02-11T10:10:48.930Z,100747.34
2023-02-11T10:13:44.008Z,100769.47
2023-02-11T10:16:24.559Z,100785.69
2023-02-11T10:19:09.685Z,100794.19
2023-02-11T10:21:46.700Z,100808.69
2023-02-11T10:24:17.926Z,100822.28
2023-02-11T10:26:46.672Z,100843.59
2023-02-11T10:29:27.007Z,100846.16
2023-02-11T10:31:57.960Z,100857.22
2023-02-11T10:34:26.232Z,100872.56
2023-02-11T10:36:55.478Z,100877.69
2023-02-11T10:39:26.489Z,100901.53
2023-02-11T10:41:58.105Z,100910.06
2023-02-11T10:44:31.955Z,100916.88
2023-02-11T10:47:03.863Z,100930.53
2023-02-11T10:49:38.014Z,100934.78
2023-02-11T10:52:25.155Z,100937.34
2023-02-11T10:55:05.499Z,100953.53
2023-02-11T10:57:38.959Z,100965.47
2023-02-11T11:00:27.227Z,100968.88
2023-02-11T11:02:57.763Z,100972.28
2023-02-11T11:05:32.236Z,100982.50
2023-02-11T11:08:04.995Z,100990.19
2023-02-11T11:10:43.443Z,100999.59
2023-02-11T11:13:32.953Z,100991.91
2023-02-11T11:16:25.543Z,100997.03
2023-02-11T11:18:55.397Z,100982.50
2023-02-11T11:21:25.337Z,100968.03
2023-02-11T11:24:00.313Z,100945.84
2023-02-11T11:26:30.578Z,100950.97
2023-02-11T11:29:02.131Z,100938.19
2023-02-11T11:31:34.418Z,100937.31
2023-02-11T11:34:07.758Z,100932.19
2023-02-11T11:36:38.700Z,100927.94
2023-02-11T11:39:21.796Z,100925.41
2023-02-11T11:42:24.833Z,100918.59
2023-02-11T11:44:59.274Z,100920.28
2023-02-11T11:47:35.316Z,100934.75
2023-02-11T11:50:28.919Z,100945.00
2023-02-11T11:53:04.139Z,100961.19
2023-02-11T11:55:39.115Z,100970.59
2023-02-11T11:58:14.547Z,100973.16
2023-02-11T12:00:53.179Z,100984.22
2023-02-11T12:03:59.829Z,100985.94
2023-02-11T12:06:39.208Z,100983.38
2023-02-11T12:09:16.925Z,100984.22
2023-02-11T12:12:21.460Z,100985.94
2023-02-11T12:15:00.505Z,100993.59
2023-02-11T12:17:44.874Z,100989.31
2023-02-11T12:20:28.829Z,100997.00
2023-02-11T12:23:09.297Z,100993.59
2023-02-11T12:25:44.678Z,101012.38
2023-02-11T12:28:26.777Z,101017.47
2023-02-11T12:31:13.397Z,101043.91
2023-02-11T12:34:26.524Z,101089.16
2023-02-11T12:37:03.443Z,101119.84
2023-02-11T12:39:42.420Z,101147.13
2023-02-11T12:42:44.502Z,101170.19
2023-02-11T12:45:25.994Z,101190.69
2023-02-11T12:48:10.518Z,101224.81
2023-02-11T12:50:50.115Z,101247.03
2023-02-11T12:53:41.388Z,101270.97
2023-02-11T12:56:16.119Z,101290.56
2023-02-11T12:58:45.967Z,101314.50
2023-02-11T13:01:23.325Z,101333.31
2023-02-11T13:03:55.766Z,101356.34
2023-02-11T13:06:30.536Z,101371.75
2023-02-11T13:09:01.934Z,101405.09
2023-02-11T13:11:33.231Z,101432.47
2023-02-11T13:14:05.490Z,101471.78
2023-02-11T13:16:39.466Z,101514.53
2023-02-11T13:19:18.398Z,101548.75
2023-02-11T13:22:03.915Z,101565.00
2023-02-11T13:24:44.087Z,101600.94
2023-02-11T13:27:32.850Z,101618.03
2023-02-11T13:30:26.911Z,101640.28
2023-02-11T13:33:33.768Z,101650.56
2023-02-11T13:36:17.701Z,101663.41
2023-02-11T13:39:04.395Z,101676.25
2023-02-11T13:41:35.148Z,101680.50
2023-02-11T13:44:25.723Z,101684.78
2023-02-11T13:46:58.239Z,101699.31
2023-02-11T13:49:32.922Z,101696.78
2023-02-11T13:52:03.970Z,101701.06
2023-02-11T13:54:35.438Z,101703.63
2023-02-11T13:57:28.110Z,101707.91
2023-02-11T13:59:57.439Z,101711.31
2023-02-11T14:02:46.911Z,101707.06
2023-02-11T14:09:08.796Z,101703.63
2023-02-11T14:11:50.206Z,101703.63
2023-02-11T14:14:23.758Z,101696.75
2023-02-11T14:17:21.265Z,101694.19
2023-02-11T14:19:50.076Z,101694.19
2023-02-11T14:22:25.895Z,101688.22
2023-02-11T14:24:57.419Z,101682.22
2023-02-11T14:27:30.603Z,101687.34
2023-02-11T14:30:32.879Z,101666.84
2023-02-11T14:33:42.249Z,101677.94
2023-02-11T14:36:24.035Z,101682.22
2023-02-11T14:39:06.873Z,101684.78
2023-02-11T14:41:36.769Z,101685.63
2023-02-11T14:44:07.639Z,101689.06
2023-02-11T14:46:36.076Z,101687.34
2023-02-11T14:49:06.468Z,101683.94
2023-02-11T14:51:37.121Z,101673.66
2023-02-11T14:54:15.290Z,101659.97
2023-02-11T14:56:44.413Z,101659.97
2023-02-11T14:59:18.228Z,101652.25
2023-02-11T15:01:50.010Z,101656.53
2023-02-11T15:04:26.103Z,101639.41
2023-02-11T15:06:55.271Z,101626.59
2023-02-11T15:09:31.065Z,101617.19
2023-02-11T15:11:59.315Z,101608.59
2023-02-11T15:14:30.787Z,101607.75
2023-02-11T15:17:01.621Z,101605.19
2023-02-11T15:19:34.382Z,101600.06
2023-02-11T15:22:05.327Z,101592.38
2023-02-11T15:24:36.104Z,101593.22
2023-02-11T15:27:12.840Z,101592.34
2023-02-11T15:29:43.300Z,101590.66
2023-02-11T15:32:16.935Z,101586.38
2023-02-11T15:34:45.932Z,101581.22
2023-02-11T15:37:15.663Z,101584.63
2023-02-11T15:39:44.843Z,101585.50
2023-02-11T15:42:25.094Z,101575.25
2023-02-11T15:45:12.820Z,101579.50
2023-02-11T15:47:43.241Z,101576.94
2023-02-11T15:50:22.107Z,101575.22
2023-02-11T15:52:50.993Z,101583.78
2023-02-11T15:55:21.223Z,101582.06
2023-02-11T15:57:55.109Z,101586.34
2023-02-11T16:00:25.962Z,101570.09
2023-02-11T16:02:54.601Z,101567.53
2023-02-11T16:05:29.361Z,101562.38
2023-02-11T16:07:58.181Z,101554.69
2023-02-11T16:10:30.057Z,101556.41
2023-02-11T16:13:18.090Z,101541.03
2023-02-11T16:15:50.705Z,101529.88
2023-02-11T16:18:37.673Z,101523.06
2023-02-11T16:21:08.853Z,101522.19
2023-02-11T16:23:38.987Z,101528.19
2023-02-11T16:26:13.834Z,101537.56
2023-02-11T16:28:42.204Z,101526.47
2023-02-11T16:31:10.662Z,101529.03
2023-02-11T16:33:38.538Z,101524.75
2023-02-11T16:36:13.085Z,101517.06
2023-02-11T16:38:45.004Z,101506.81
2023-02-11T16:41:14.308Z,101509.34
2023-02-11T16:43:42.165Z,101494.81
2023-02-11T16:46:14.984Z,101490.56
2023-02-11T16:48:42.889Z,101486.28
2023-02-11T16:51:12.230Z,101483.72
2023-02-11T16:53:40.125Z,101488.84
2023-02-11T16:56:08.385Z,101489.69
2023-02-11T16:58:37.648Z,101487.13
2023-02-11T17:01:05.636Z,101476.03
2023-02-11T17:03:37.472Z,101487.13
2023-02-11T17:06:11.760Z,101492.25
2023-02-11T17:08:39.669Z,101483.72
2023-02-11T17:11:07.547Z,101481.16
2023-02-11T17:13:36.927Z,101480.31
2023-02-11T17:16:04.755Z,101475.16
2023-02-11T17:18:32.722Z,101474.28
2023-02-11T17:21:01.293Z,101470.88
2023-02-11T17:23:29.405Z,101470.88
2023-02-11T17:25:57.837Z,101462.34
2023-02-11T17:28:25.632Z,101451.25
2023-02-11T17:30:54.894Z,101458.91
2023-02-11T17:33:22.806Z,101464.91
2023-02-11T17:35:51.319Z,101470.03
2023-02-11T17:38:19.374Z,101468.31
2023-02-11T17:40:47.201Z,101468.31
2023-02-11T17:43:15.809Z,101466.59
2023-02-11T17:45:43.655Z,101465.75
2023-02-11T17:48:12.981Z,101458.88
2023-02-11T17:50:40.713Z,101449.50
2023-02-11T17:53:08.739Z,101455.47
2023-02-11T17:55:38.376Z,101451.19
2023-02-11T17:58:06.272Z,101442.66
2023-02-11T18:00:34.228Z,101449.50
2023-02-11T18:03:02.910Z,101460.59
2023-02-11T18:08:28.131Z,101454.63
2023-02-11T18:10:56.110Z,101460.63
2023-02-11T18:13:23.861Z,101460.59
2023-02-11T18:15:51.980Z,101462.31
2023-02-11T18:18:20.061Z,101464.03
2023-02-11T18:20:58.462Z,101470.03
2023-02-11T18:23:26.883Z,101473.44
2023-02-11T18:25:54.862Z,101471.72
2023-02-11T18:28:22.806Z,101484.53
2023-02-11T18:30:58.159Z,101491.38
2023-02-11T18:33:26.669Z,101481.13
2023-02-11T18:35:54.571Z,101478.56
2023-02-11T18:38:24.162Z,101475.16
2023-02-11T18:40:52.415Z,101467.44
2023-02-11T18:43:20.861Z,101454.63
2023-02-11T18:45:50.984Z,101448.63
2023-02-11T18:48:20.189Z,101443.47
2023-02-11T18:50:47.928Z,101441.78
2023-02-11T18:53:16.085Z,101437.50
2023-02-11T18:55:46.817Z,101425.53
2023-02-11T18:58:15.275Z,101423.81
2023-02-11T19:00:46.068Z,101423.81
2023-02-11T19:03:13.975Z,101437.50
2023-02-11T19:05:42.923Z,101461.44
2023-02-11T19:08:11.113Z,101457.19
2023-02-11T19:10:41.331Z,101475.09
2023-02-11T19:13:10.947Z,101466.59
2023-02-11T19:15:42.043Z,101477.72
2023-02-11T19:18:10.489Z,101474.28
2023-02-11T19:20:40.506Z,101474.28
2023-02-11T19:23:08.531Z,101466.56
2023-02-11T19:25:36.344Z,101470.00
2023-02-11T19:28:04.673Z,101469.13
2023-02-11T19:30:33.859Z,101475.16
2023-02-11T19:33:01.734Z,101482.84
2023-02-11T19:35:29.538Z,101479.41
2023-02-11T19:37:57.496Z,101472.53
2023-02-11T19:40:25.293Z,101469.13
2023-02-11T19:42:53.102Z,101481.97
2023-02-11T19:45:20.949Z,101476.84
2023-02-11T19:47:50.026Z,101476.81
2023-02-11T19:50:18.257Z,101488.81
2023-02-11T19:52:46.063Z,101494.78
2023-02-11T19:55:13.970Z,101510.19
2023-02-11T19:57:41.833Z,101524.72
2023-02-11T20:00:11.174Z,101519.59
2023-02-11T20:02:42.125Z,101517.88
2023-02-11T20:05:11.389Z,101519.59
2023-02-11T20:07:39.199Z,101514.47
2023-02-11T20:10:08.778Z,101528.13
2023-02-11T20:12:37.617Z,101536.66
2023-02-11T20:15:06.518Z,101546.97
2023-02-11T20:17:34.349Z,101555.50
2023-02-11T20:20:02.228Z,101552.09
2023-02-11T20:22:31.488Z,101552.09
2023-02-11T20:24:59.325Z,101558.06
2023-02-11T20:27:29.020Z,101555.50
2023-02-11T20:29:56.830Z,101558.06
2023-02-11T20:32:24.629Z,101563.19
2023-02-11T20:34:52.589Z,101564.91
2023-02-11T20:37:20.731Z,101571.72
2023-02-11T20:39:50.894Z,101564.91
2023-02-11T20:42:18.675Z,101564.03
2023-02-11T20:44:46.531Z,101573.44
2023-02-11T20:47:14.378Z,101576.00
2023-02-11T20:49:42.145Z,101570.03
2023-02-11T20:52:10.082Z,101561.47
2023-02-11T20:54:37.802Z,101559.78
2023-02-11T20:57:07.179Z,101568.31
2023-02-11T20:59:35.247Z,101572.59
2023-02-11T21:02:03.765Z,101578.59
2023-02-11T21:04:32.617Z,101586.28
2023-02-11T21:07:02.577Z,101601.66
2023-02-11T21:09:32.224Z,101598.25
2023-02-11T21:12:00.460Z,101596.53
2023-02-11T21:14:29.998Z,101593.97
2023-02-11T21:16:58.136Z,101599.09
2023-02-11T21:19:26.238Z,101599.97
2023-02-11T21:21:55.112Z,101594.84
2023-02-11T21:24:23.708Z,101602.53
2023-02-11T21:26:51.557Z,101599.97
2023-02-11T21:29:19.297Z,101596.53
2023-02-11T21:31:48.512Z,101584.56
2023-02-11T21:34:16.794Z,101575.16
2023-02-11T21:36:45.212Z,101596.53
2023-02-11T21:39:13.605Z,101598.25
2023-02-11T21:41:41.406Z,101595.69
2023-02-11T21:44:09.343Z,101592.25
2023-02-11T21:46:37.155Z,101592.25
2023-02-11T21:49:06.336Z,101588.00
2023-02-11T21:51:34.202Z,101582.84
2023-02-11T21:54:03.334Z,101587.09
2023-02-11T21:56:33.432Z,101587.97
2023-02-11T21:59:01.520Z,101584.53
2023-02-11T22:01:31.018Z,101589.69
2023-02-11T22:03:59.767Z,101586.25
2023-02-11T22:06:31.707Z,101603.38
2023-02-11T22:09:02.676Z,101611.91
2023-02-11T22:11:30.997Z,101607.66
2023-02-11T22:13:59.060Z,101615.34
2023-02-11T22:16:30.825Z,101630.75
2023-02-11T22:18:59.376Z,101636.75
2023-02-11T22:21:27.381Z,101633.31
2023-02-11T22:23:57.397Z,101622.22
2023-02-11T22:26:27.344Z,101623.06
2023-02-11T22:28:56.282Z,101619.66
2023-02-11T22:31:25.921Z,101623.91
2023-02-11T22:33:53.877Z,101633.31
2023-02-11T22:36:23.824Z,101642.72
2023-02-11T22:38:52.005Z,101653.81
2023-02-11T22:41:21.966Z,101652.13
2023-02-11T22:43:50.166Z,101653.00
2023-02-11T22:46:19.463Z,101647.88
2023-02-11T22:48:48.168Z,101645.28
2023-02-11T22:51:17.910Z,101647.84
2023-02-11T22:53:45.848Z,101635.88
2023-02-11T22:56:15.858Z,101637.59
2023-02-11T22:58:45.387Z,101636.75
2023-02-11T23:01:15.596Z,101647.84
2023-02-11T23:06:36.395Z,101642.72
2023-02-11T23:09:04.855Z,101647.00
2023-02-11T23:11:32.954Z,101654.69
2023-02-11T23:14:02.133Z,101656.38
2023-02-11T23:16:32.275Z,101662.41
2023-02-11T23:19:01.271Z,101677.78
2023-02-11T23:21:31.544Z,101682.06
2023-02-11T23:24:02.468Z,101671.81
2023-02-11T23:26:30.926Z,101674.38
2023-02-11T23:28:59.689Z,101662.41
2023-02-11T23:31:29.564Z,101653.81
2023-02-11T23:33:57.975Z,101657.25
2023-02-11T23:36:25.904Z,101657.28
2023-02-11T23:38:53.811Z,101654.72
2023-02-11T23:41:24.923Z,101667.53
2023-02-11T23:43:54.193Z,101673.53
